Time;durP1;ratioP1;P1;durP2;ratioP2;P2;SDS_P1;SDS_P2;PMS_P1;PMS_P2;Temp;Humidity;BMP_temperature;BMP_pressure;BME280_temperature;BME280_humidity;BME280_pressure;Samples;Min_cycle;Max_cycle;Signal;HPM_P1;HPM_P2
2022/02/06 00:00:59;;;;;;;16.42;12.18;;;5.70;99.90;;;;;;5083980;28;20038;-86
2022/02/06 00:06:19;;;;;;;13.75;11.55;;;5.70;99.90;;;;;;5085871;28;20386;-84
2022/02/06 00:08:57;;;;;;;16.02;10.90;;;5.60;99.90;;;;;;5089235;28;20514;-85
2022/02/06 00:11:26;;;;;;;17.60;10.82;;;5.60;99.90;;;;;;5081630;28;20025;-84
2022/02/06 00:16:46;;;;;;;16.13;10.90;;;5.50;99.90;;;;;;5057547;28;20044;-86
2022/02/06 00:19:32;;;;;;;18.35;10.75;;;5.50;99.90;;;;;;5060441;28;20407;-87
2022/02/06 00:22:40;;;;;;;14.65;10.73;;;5.50;99.90;;;;;;5084306;28;20028;-85
2022/02/06 00:25:20;;;;;;;16.70;11.30;;;5.50;99.90;;;;;;5082642;28;20035;-86
2022/02/06 00:39:27;;;;;;;17.05;10.70;;;5.60;99.90;;;;;;5086268;28;20043;-89
2022/02/06 00:42:41;;;;;;;12.65;9.57;;;5.60;99.90;;;;;;5083055;28;20107;-86
2022/02/06 00:45:11;;;;;;;12.82;9.35;;;5.70;99.90;;;;;;5072007;28;20035;-85
2022/02/06 00:52:01;;;;;;;13.55;8.98;;;5.70;99.90;;;;;;5064704;28;20082;-85
2022/02/06 00:54:34;;;;;;;12.40;8.98;;;5.60;99.90;;;;;;4995399;28;20038;-85
2022/02/06 00:57:06;;;;;;;12.05;8.90;;;5.50;99.90;;;;;;5044604;28;20586;-85
2022/02/06 00:59:44;;;;;;;12.93;8.90;;;5.50;99.90;;;;;;5063788;28;20045;-85
2022/02/06 01:02:13;;;;;;;9.65;8.05;;;5.50;99.90;;;;;;5058032;28;20476;-85
2022/02/06 01:04:39;;;;;;;12.88;8.35;;;5.50;99.90;;;;;;5064239;28;20032;-85
2022/02/06 01:07:40;;;;;;;11.48;8.60;;;5.50;99.90;;;;;;5058947;28;20391;-85
2022/02/06 01:10:17;;;;;;;11.10;8.05;;;5.60;99.90;;;;;;5059305;28;20396;-84
2022/02/06 01:30:40;;;;;;;13.35;8.65;;;5.30;99.90;;;;;;4908595;29;20075;-85
2022/02/06 01:33:16;;;;;;;11.27;9.10;;;5.30;99.90;;;;;;4875772;29;20424;-85
2022/02/06 01:36:27;;;;;;;11.40;8.60;;;5.30;99.90;;;;;;4866325;29;20752;-84
2022/02/06 01:42:13;;;;;;;10.68;7.47;;;5.20;99.90;;;;;;4899644;29;20088;-85
2022/02/06 02:50:30;;;;;;;;;;;;;;;;;;;;;
2022/02/06 03:31:32;;;;;;;11.02;6.85;;;4.70;99.90;;;;;;4852302;29;20089;-91
2022/02/06 03:35:00;;;;;;;;;;;;;;;;;;;;;
2022/02/06 04:32:48;;;;;;;11.18;8.15;;;4.50;99.90;;;;;;5034977;28;20028;-90
2022/02/06 04:35:32;;;;;;;10.98;7.57;;;4.50;99.90;;;;;;5023959;28;20037;-89
2022/02/06 05:33:20;;;;;;;12.95;7.57;;;5.00;99.90;;;;;;5027303;28;20080;-87
2022/02/06 05:35:46;;;;;;;10.50;7.43;;;5.20;99.90;;;;;;5013388;28;20114;-87
2022/02/06 05:38:27;;;;;;;10.35;7.85;;;5.30;99.90;;;;;;5013611;28;20100;-85
2022/02/06 05:44:15;;;;;;;10.85;7.22;;;5.60;99.90;;;;;;5018076;28;20523;-87
2022/02/06 06:23:15;;;;;;;10.60;7.38;;;6.60;99.90;;;;;;4983479;28;20041;-89
2022/02/06 06:32:44;;;;;;;;;;;;;;;;;;;;;
2022/02/06 06:35:17;;;;;;;9.02;6.97;;;6.90;99.90;;;;;;5038516;28;20033;-89
2022/02/06 06:37:43;;;;;;;7.50;6.70;;;6.90;99.90;;;;;;5046276;28;20031;-87
2022/02/06 06:47:06;;;;;;;10.45;7.82;;;7.10;99.90;;;;;;5040602;28;20083;-88
2022/02/06 06:49:32;;;;;;;9.88;8.38;;;7.10;99.90;;;;;;5041932;28;20079;-88
2022/02/06 07:05:03;;;;;;;10.88;7.82;;;7.40;99.90;;;;;;5059345;28;20032;-88
2022/02/06 07:14:32;;;;;;;11.27;7.97;;;7.60;99.90;;;;;;5018302;28;20109;-89
2022/02/06 07:20:53;;;;;;;14.35;8.95;;;7.80;99.90;;;;;;4965191;28;20047;-89
2022/02/06 07:23:28;;;;;;;14.20;10.40;;;7.90;99.90;;;;;;4970148;28;20049;-89
2022/02/06 07:26:20;;;;;;;12.93;8.82;;;7.90;99.90;;;;;;5045279;28;20509;-90
2022/02/06 07:28:56;;;;;;;12.80;8.55;;;7.90;99.90;;;;;;5048393;28;20127;-89
2022/02/06 07:31:54;;;;;;;12.90;8.38;;;7.90;99.90;;;;;;5039288;28;20033;-88
2022/02/06 07:34:21;;;;;;;13.38;8.10;;;8.00;99.90;;;;;;5065768;28;20075;-87
2022/02/06 07:37:21;;;;;;;15.15;7.90;;;8.00;99.90;;;;;;5039095;28;20064;-88
2022/02/06 07:43:21;;;;;;;15.32;8.88;;;8.20;99.90;;;;;;4972042;28;20130;-89
2022/02/06 07:45:51;;;;;;;13.73;8.00;;;8.20;99.90;;;;;;4973570;28;20041;-89
2022/02/06 07:48:32;;;;;;;18.83;8.45;;;8.30;99.90;;;;;;4974507;28;20031;-89
2022/02/06 07:51:04;;;;;;;13.77;8.45;;;8.30;99.90;;;;;;4974266;28;20033;-90
2022/02/06 07:53:34;;;;;;;14.52;8.57;;;8.40;99.90;;;;;;5001257;28;20123;-89
2022/02/06 07:56:00;;;;;;;11.10;8.45;;;8.40;99.90;;;;;;5045375;28;20483;-89
2022/02/06 07:58:26;;;;;;;13.23;8.20;;;8.40;99.90;;;;;;5062418;28;20041;-90
2022/02/06 08:01:12;;;;;;;15.05;9.18;;;8.40;99.90;;;;;;5066362;28;20144;-89
2022/02/06 08:03:56;;;;;;;12.60;8.20;;;8.50;99.90;;;;;;5073163;28;20028;-87
2022/02/06 08:06:33;;;;;;;11.73;8.30;;;8.50;99.90;;;;;;5071883;28;20041;-85
2022/02/06 08:08:59;;;;;;;12.90;9.32;;;8.50;99.90;;;;;;5070706;28;20025;-87
2022/02/06 08:11:25;;;;;;;15.68;8.48;;;8.50;99.90;;;;;;5061955;28;20025;-85
2022/02/06 08:13:55;;;;;;;15.13;8.48;;;8.50;99.90;;;;;;5059674;28;20545;-87
2022/02/06 08:16:21;;;;;;;16.15;9.10;;;8.60;99.90;;;;;;5066890;28;20120;-87
2022/02/06 08:18:50;;;;;;;15.23;8.90;;;8.70;99.90;;;;;;5074141;28;20627;-88
2022/02/06 08:21:24;;;;;;;23.55;15.82;;;8.80;99.90;;;;;;5067012;28;20043;-88
2022/02/06 08:23:50;;;;;;;13.90;9.43;;;8.80;99.90;;;;;;5070921;28;20017;-87
2022/02/06 08:30:05;;;;;;;15.43;9.25;;;9.00;99.90;;;;;;5069451;28;20066;-84
2022/02/06 08:32:33;;;;;;;15.85;9.30;;;9.10;99.90;;;;;;5064608;28;20102;-86
2022/02/06 08:35:18;;;;;;;19.02;11.73;;;9.10;99.90;;;;;;5066181;28;20801;-87
2022/02/06 08:37:50;;;;;;;21.35;13.20;;;9.10;99.90;;;;;;5062973;28;20048;-83
2022/02/06 08:40:18;;;;;;;23.45;13.65;;;9.20;99.90;;;;;;5063873;28;20187;-88
2022/02/06 08:42:53;;;;;;;20.27;14.23;;;9.30;99.90;;;;;;5080568;28;20055;-88
2022/02/06 08:45:22;;;;;;;23.30;15.43;;;9.50;99.90;;;;;;5067106;28;20037;-87
2022/02/06 08:47:54;;;;;;;24.23;15.27;;;9.60;99.90;;;;;;5058797;28;20017;-88
2022/02/06 08:53:24;;;;;;;21.95;15.05;;;9.60;99.90;;;;;;5051101;28;20037;-81
2022/02/06 08:55:56;;;;;;;24.63;13.88;;;9.70;99.90;;;;;;5068173;28;20053;-91
2022/02/06 08:58:22;;;;;;;24.65;13.68;;;9.70;99.90;;;;;;5077209;28;20041;-89
2022/02/06 09:00:54;;;;;;;28.20;16.23;;;9.60;99.90;;;;;;5074146;28;20040;-83
2022/02/06 09:03:20;;;;;;;17.67;13.60;;;9.60;99.90;;;;;;5087951;28;20024;-83
2022/02/06 09:06:10;;;;;;;21.33;13.77;;;9.70;99.90;;;;;;5081670;28;20024;-86
2022/02/06 09:08:37;;;;;;;19.02;13.60;;;9.80;99.90;;;;;;5077676;28;20039;-84
2022/02/06 09:11:08;;;;;;;24.00;13.10;;;9.90;99.90;;;;;;5067963;28;20024;-82
2022/02/06 09:13:34;;;;;;;19.58;11.50;;;10.00;99.90;;;;;;5077519;28;20025;-83
2022/02/06 09:16:00;;;;;;;15.25;10.35;;;10.20;99.90;;;;;;5085358;28;20035;-83
2022/02/06 09:18:26;;;;;;;18.67;11.05;;;10.30;99.90;;;;;;5087740;28;20076;-81
2022/02/06 09:20:55;;;;;;;18.83;13.75;;;10.40;99.90;;;;;;5084893;28;20032;-86
2022/02/06 09:23:22;;;;;;;27.40;14.93;;;10.50;99.90;;;;;;5060704;28;20104;-84
2022/02/06 09:25:48;;;;;;;33.25;17.60;;;10.50;99.90;;;;;;5085362;28;20020;-85
2022/02/06 09:28:29;;;;;;;27.38;17.05;;;10.60;99.90;;;;;;5071136;28;20035;-87
2022/02/06 09:31:01;;;;;;;26.53;18.70;;;10.60;99.90;;;;;;5085982;28;20054;-91
2022/02/06 09:35:53;;;;;;;32.08;21.52;;;10.50;99.90;;;;;;5082041;28;20032;-81
2022/02/06 09:38:39;;;;;;;42.58;27.63;;;10.50;99.90;;;;;;5078189;28;20027;-84
2022/02/06 09:41:08;;;;;;;33.28;23.10;;;10.40;99.90;;;;;;5080650;28;20101;-84
2022/02/06 09:46:49;;;;;;;35.47;24.48;;;10.50;99.90;;;;;;5063478;28;20039;-87
2022/02/06 09:49:16;;;;;;;36.22;25.33;;;10.40;99.90;;;;;;5090152;28;20024;-84
2022/02/06 09:51:46;;;;;;;38.78;25.92;;;10.50;99.90;;;;;;5082405;28;20026;-84
2022/02/06 09:54:14;;;;;;;39.38;27.70;;;10.50;99.90;;;;;;5076321;28;20046;-85
2022/02/06 09:56:54;;;;;;;39.88;28.10;;;10.40;99.90;;;;;;5085967;28;20053;-82
2022/02/06 09:59:25;;;;;;;41.10;28.63;;;10.50;99.90;;;;;;5067385;28;20079;-83
2022/02/06 10:01:55;;;;;;;45.05;29.88;;;10.50;99.90;;;;;;5082725;28;20027;-85
2022/02/06 10:04:33;;;;;;;40.13;27.23;;;10.50;99.90;;;;;;5074295;28;20120;-84
2022/02/06 10:07:07;;;;;;;66.60;43.10;;;10.60;99.90;;;;;;5083651;28;20073;-83
2022/02/06 10:09:44;;;;;;;51.42;34.20;;;10.60;99.90;;;;;;5085085;28;20024;-82
2022/02/06 10:12:13;;;;;;;36.70;28.42;;;10.70;99.90;;;;;;5084441;28;20505;-84
2022/02/06 10:14:40;;;;;;;56.38;37.85;;;10.70;99.90;;;;;;5077021;28;20028;-83
2022/02/06 10:17:13;;;;;;;51.15;36.45;;;10.70;99.90;;;;;;5072727;28;20027;-83
2022/02/06 10:19:58;;;;;;;63.28;44.25;;;10.70;99.90;;;;;;5071852;28;20046;-83
2022/02/06 10:22:26;;;;;;;54.03;41.17;;;10.70;99.90;;;;;;5077162;28;20498;-82
2022/02/06 10:25:05;;;;;;;63.75;44.05;;;10.70;99.90;;;;;;5078404;28;20017;-85
2022/02/06 10:31:06;;;;;;;65.28;44.22;;;10.60;99.90;;;;;;5029615;28;20064;-86
2022/02/06 10:33:48;;;;;;;64.38;43.58;;;10.60;99.90;;;;;;5064023;28;20032;-83
2022/02/06 10:36:16;;;;;;;68.38;42.45;;;10.60;99.90;;;;;;5082819;28;20043;-82
2022/02/06 10:38:48;;;;;;;68.85;44.08;;;10.50;99.90;;;;;;5076057;28;20043;-86
2022/02/06 10:41:24;;;;;;;70.72;47.22;;;10.50;99.90;;;;;;5082789;28;20028;-85
2022/02/06 10:44:15;;;;;;;72.45;46.67;;;10.40;99.90;;;;;;5076575;28;20031;-84
2022/02/06 10:46:47;;;;;;;67.40;46.60;;;10.30;99.90;;;;;;5083367;28;20047;-84
2022/02/06 10:49:16;;;;;;;76.07;48.65;;;10.30;99.90;;;;;;5078092;28;20058;-82
2022/02/06 10:52:04;;;;;;;69.35;45.67;;;10.20;99.90;;;;;;5082302;28;20036;-82
2022/02/06 10:54:39;;;;;;;64.55;44.97;;;10.20;99.90;;;;;;5057620;28;20063;-79
2022/02/06 10:57:15;;;;;;;66.70;43.25;;;10.20;99.90;;;;;;5078568;28;20044;-82
2022/02/06 10:59:49;;;;;;;75.35;45.83;;;10.20;99.90;;;;;;5084343;28;20036;-83
2022/02/06 11:02:46;;;;;;;68.80;45.67;;;10.30;99.90;;;;;;5067363;28;20033;-84
2022/02/06 11:05:18;;;;;;;63.67;43.97;;;10.30;99.90;;;;;;5079669;28;20490;-84
2022/02/06 11:07:54;;;;;;;63.45;42.90;;;10.30;99.90;;;;;;5075611;28;20017;-84
2022/02/06 11:10:22;;;;;;;64.55;44.65;;;10.30;99.90;;;;;;5057856;28;20028;-83
2022/02/06 11:12:56;;;;;;;68.70;42.42;;;10.30;99.90;;;;;;5075397;28;20021;-84
2022/02/06 11:15:28;;;;;;;62.10;42.95;;;10.40;99.90;;;;;;5076339;28;20112;-84
2022/02/06 11:18:18;;;;;;;64.85;43.35;;;10.40;99.90;;;;;;5074571;28;20031;-86
2022/02/06 11:21:02;;;;;;;58.95;42.78;;;10.40;99.90;;;;;;5080588;28;20105;-83
2022/02/06 11:23:49;;;;;;;73.30;53.22;;;10.40;99.90;;;;;;5086645;28;20012;-85
2022/02/06 11:26:23;;;;;;;63.15;43.38;;;10.30;99.90;;;;;;5082759;28;20035;-86
2022/02/06 11:28:53;;;;;;;63.90;45.58;;;10.20;99.90;;;;;;5070088;28;20419;-84
2022/02/06 11:31:19;;;;;;;66.82;44.35;;;10.20;99.90;;;;;;5071652;28;20021;-83
2022/02/06 11:33:46;;;;;;;65.00;44.63;;;10.10;99.90;;;;;;5056542;28;20028;-82
2022/02/06 11:36:19;;;;;;;65.28;42.67;;;10.00;99.90;;;;;;5080617;28;20534;-85
2022/02/06 11:45:22;;;;;;;293.40;190.07;;;9.60;99.90;;;;;;5028098;28;20084;-83
2022/02/06 11:48:37;;;;;;;399.83;236.00;;;8.80;99.90;;;;;;5075128;28;20116;-84
2022/02/06 11:51:03;;;;;;;446.42;267.05;;;8.20;99.90;;;;;;5063936;28;20546;-81
2022/02/06 11:53:37;;;;;;;497.55;287.58;;;8.00;99.90;;;;;;5074794;28;20105;-83
2022/02/06 11:56:21;;;;;;;502.95;287.80;;;7.90;99.90;;;;;;5062429;28;20491;-84
2022/02/06 11:58:49;;;;;;;538.20;296.95;;;7.80;99.90;;;;;;5070060;28;20036;-82
2022/02/06 12:01:15;;;;;;;564.88;301.38;;;7.70;99.90;;;;;;5084311;28;20030;-87
2022/02/06 12:04:04;;;;;;;607.28;315.30;;;7.60;99.90;;;;;;5068665;28;20111;-83
2022/02/06 12:06:54;;;;;;;639.50;316.08;;;7.60;99.90;;;;;;5081297;28;20509;-84
2022/02/06 12:09:24;;;;;;;697.22;326.13;;;7.50;99.90;;;;;;5084893;28;20021;-84
2022/02/06 12:12:13;;;;;;;739.67;327.77;;;7.50;99.90;;;;;;5061423;28;20025;-85
2022/02/06 12:14:46;;;;;;;813.50;333.33;;;7.50;99.90;;;;;;5082294;28;20505;-84
2022/02/06 12:17:35;;;;;;;902.95;344.35;;;7.60;99.90;;;;;;5080578;28;20020;-84
2022/02/06 12:20:11;;;;;;;1014.08;344.80;;;7.60;99.90;;;;;;5073912;28;20123;-84
2022/02/06 12:22:48;;;;;;;714.45;347.67;;;7.60;99.90;;;;;;5073436;28;20446;-84
2022/02/06 12:25:37;;;;;;;779.78;361.77;;;7.50;99.90;;;;;;5077739;28;20165;-83
2022/02/06 12:28:17;;;;;;;846.00;366.48;;;7.50;99.90;;;;;;5077877;28;20013;-83
2022/02/06 12:30:45;;;;;;;725.78;359.65;;;7.60;99.90;;;;;;5083246;28;20437;-84
2022/02/06 12:33:39;;;;;;;797.75;363.70;;;7.50;99.90;;;;;;5087234;28;20471;-84
2022/02/06 12:37:09;;;;;;;748.83;367.88;;;7.40;99.90;;;;;;5081179;28;20032;-84
2022/02/06 12:39:36;;;;;;;701.22;354.15;;;7.40;99.90;;;;;;4979040;28;20105;-83
2022/02/06 12:42:16;;;;;;;692.85;351.88;;;7.30;99.90;;;;;;4965858;28;20022;-83
2022/02/06 12:44:47;;;;;;;685.40;349.52;;;7.30;99.90;;;;;;5054203;28;20399;-84
2022/02/06 12:47:20;;;;;;;663.55;348.45;;;7.30;99.90;;;;;;5072183;28;20039;-85
2022/02/06 12:49:47;;;;;;;657.90;343.95;;;7.40;99.90;;;;;;5079251;28;20032;-84
2022/02/06 12:52:26;;;;;;;651.45;341.60;;;7.40;99.90;;;;;;5085020;28;20035;-84
2022/02/06 12:54:52;;;;;;;636.80;337.60;;;7.40;99.90;;;;;;5061218;28;20063;-84
2022/02/06 12:57:32;;;;;;;637.42;335.20;;;7.40;99.90;;;;;;5087405;28;20072;-84
2022/02/06 13:00:19;;;;;;;;;;;;;;;;;;;;;
2022/02/06 13:03:19;;;;;;;;;;;;;;;;;;;;;
2022/02/06 13:06:17;;;;;;;598.50;322.67;;;7.40;99.90;;;;;;5056237;28;20034;-83
2022/02/06 13:08:43;;;;;;;580.33;317.63;;;7.40;99.90;;;;;;5077443;28;20027;-86
2022/02/06 13:11:29;;;;;;;542.38;296.95;;;7.40;99.90;;;;;;5090934;28;20072;-86
2022/02/06 13:14:07;;;;;;;554.17;305.10;;;7.50;99.90;;;;;;5061450;28;20392;-87
2022/02/06 13:20:00;;;;;;;510.88;288.38;;;7.50;99.90;;;;;;5077295;28;20191;-84
2022/02/06 13:25:34;;;;;;;498.23;291.67;;;7.50;99.90;;;;;;5086279;28;20035;-82
2022/02/06 13:33:51;;;;;;;452.33;266.67;;;7.60;99.90;;;;;;5078516;28;20043;-83
2022/02/06 13:39:04;;;;;;;377.92;223.20;;;7.80;99.90;;;;;;5078033;28;20044;-88
2022/02/06 13:41:32;;;;;;;351.70;218.85;;;7.90;99.90;;;;;;5080554;28;20025;-83
2022/02/06 13:44:03;;;;;;;369.38;234.23;;;8.00;99.90;;;;;;5075914;28;20020;-82
2022/02/06 13:46:35;;;;;;;354.08;218.80;;;7.90;99.90;;;;;;5086234;28;20020;-83
2022/02/06 13:49:06;;;;;;;378.80;227.73;;;7.90;99.90;;;;;;5085140;28;20104;-83
2022/02/06 13:51:41;;;;;;;372.85;224.95;;;7.90;99.90;;;;;;5085180;28;20162;-83
2022/02/06 13:54:08;;;;;;;394.90;225.02;;;7.80;99.90;;;;;;5088384;28;20085;-82
2022/02/06 13:56:35;;;;;;;389.02;225.35;;;7.80;99.90;;;;;;5085188;28;20032;-84
2022/02/06 13:59:02;;;;;;;399.60;228.05;;;7.80;99.90;;;;;;5071367;28;20032;-84
2022/02/06 14:01:40;;;;;;;387.52;230.82;;;7.80;99.90;;;;;;5071822;28;20036;-85
2022/02/06 14:04:18;;;;;;;390.70;246.63;;;7.80;99.90;;;;;;5071810;28;20025;-84
2022/02/06 14:06:53;;;;;;;388.08;226.23;;;7.80;99.90;;;;;;5084155;28;20033;-81
2022/02/06 14:09:33;;;;;;;392.42;225.00;;;7.80;99.90;;;;;;5083208;28;20027;-82
2022/02/06 14:15:03;;;;;;;408.83;242.13;;;7.80;99.90;;;;;;5085480;28;20721;-82
2022/02/06 14:17:45;;;;;;;354.27;198.23;;;7.90;99.90;;;;;;5071716;28;20063;-83
2022/02/06 14:20:17;;;;;;;333.42;195.75;;;7.90;99.90;;;;;;5076335;28;20049;-83
2022/02/06 14:22:49;;;;;;;323.17;182.80;;;8.00;99.90;;;;;;5079477;28;20124;-82
2022/02/06 14:25:30;;;;;;;291.40;165.52;;;8.00;99.90;;;;;;5078798;28;20036;-83
2022/02/06 14:27:57;;;;;;;289.33;168.60;;;8.00;99.90;;;;;;5083613;28;20032;-84
2022/02/06 14:30:34;;;;;;;284.92;161.27;;;8.00;99.90;;;;;;5083064;28;20024;-84
2022/02/06 14:33:11;;;;;;;313.42;170.98;;;8.00;99.90;;;;;;5074796;28;20020;-84
2022/02/06 14:35:39;;;;;;;320.40;171.80;;;7.90;99.90;;;;;;5085120;28;20028;-85
2022/02/06 14:38:07;;;;;;;316.38;186.65;;;7.90;99.90;;;;;;5075092;28;20467;-84
2022/02/06 14:43:37;;;;;;;332.27;175.95;;;7.90;99.90;;;;;;5079987;28;20453;-84
2022/02/06 14:46:04;;;;;;;332.92;169.43;;;7.80;99.90;;;;;;5072773;28;20032;-84
2022/02/06 14:48:30;;;;;;;344.52;177.18;;;7.70;99.90;;;;;;5077623;28;20021;-84
2022/02/06 14:51:09;;;;;;;391.88;191.07;;;7.70;99.90;;;;;;5072235;28;20086;-84
2022/02/06 14:53:38;;;;;;;367.48;190.52;;;7.70;99.90;;;;;;5084038;28;20024;-85
2022/02/06 14:56:05;;;;;;;346.05;172.35;;;7.80;99.90;;;;;;5079916;28;20029;-84
2022/02/06 14:58:30;;;;;;;342.48;160.52;;;7.80;99.90;;;;;;5038366;28;20045;-83
2022/02/06 15:00:56;;;;;;;350.70;170.05;;;7.80;99.90;;;;;;5060887;28;20491;-83
2022/02/06 15:03:22;;;;;;;363.52;175.45;;;7.70;99.90;;;;;;5055078;28;20078;-85
2022/02/06 15:05:49;;;;;;;377.80;189.52;;;7.60;99.90;;;;;;5061105;28;20035;-84
2022/02/06 15:08:15;;;;;;;370.58;184.43;;;7.50;99.90;;;;;;5050394;28;20479;-84
2022/02/06 15:10:41;;;;;;;394.77;192.02;;;7.50;99.90;;;;;;5041796;28;20025;-84
2022/02/06 15:13:10;;;;;;;372.60;183.38;;;7.40;99.90;;;;;;5066078;28;20032;-85
2022/02/06 15:15:44;;;;;;;382.10;182.68;;;7.50;99.90;;;;;;5062034;28;20059;-86
2022/02/06 15:18:58;;;;;;;373.02;183.90;;;7.50;99.90;;;;;;5056033;28;20040;-83
2022/02/06 15:20:56;;;;;;;383.50;188.75;;;7.50;99.90;;;;;;5060438;28;20419;-86
2022/02/06 15:23:24;;;;;;;367.33;179.32;;;7.50;99.90;;;;;;5050190;28;20036;-81
2022/02/06 15:25:57;;;;;;;386.67;188.23;;;7.50;99.90;;;;;;5063177;28;20028;-83
2022/02/06 15:28:23;;;;;;;384.17;183.00;;;7.40;99.90;;;;;;5055941;28;20037;-82
2022/02/06 15:30:49;;;;;;;403.58;181.05;;;7.40;99.90;;;;;;5062426;28;20035;-82
2022/02/06 15:33:15;;;;;;;374.73;186.02;;;7.40;99.90;;;;;;5056683;28;20028;-83
2022/02/06 15:35:46;;;;;;;373.65;178.52;;;7.40;99.90;;;;;;5065581;28;20462;-85
2022/02/06 15:38:12;;;;;;;365.17;178.70;;;7.40;99.90;;;;;;5055053;28;20033;-87
2022/02/06 15:40:39;;;;;;;387.40;169.65;;;7.40;99.90;;;;;;5051088;28;20037;-84
2022/02/06 15:43:06;;;;;;;366.30;169.00;;;7.40;99.90;;;;;;5053741;28;20134;-84
2022/02/06 15:45:33;;;;;;;352.27;174.25;;;7.40;99.90;;;;;;5061358;28;20017;-85
2022/02/06 15:47:59;;;;;;;371.58;175.80;;;7.40;99.90;;;;;;5056608;28;20029;-86
2022/02/06 15:50:25;;;;;;;375.52;170.32;;;7.40;99.90;;;;;;5057140;28;20025;-86
2022/02/06 15:52:51;;;;;;;362.10;166.43;;;7.40;99.90;;;;;;5062099;28;20036;-84
2022/02/06 15:55:17;;;;;;;372.70;172.02;;;7.40;99.90;;;;;;5065510;28;20026;-84
2022/02/06 15:57:43;;;;;;;328.95;168.63;;;7.50;99.90;;;;;;5068113;28;20051;-83
2022/02/06 16:00:10;;;;;;;357.85;169.07;;;7.60;99.90;;;;;;5074778;28;20524;-85
2022/02/06 16:02:36;;;;;;;361.52;165.32;;;7.50;99.90;;;;;;5077214;28;20024;-85
2022/02/06 16:05:03;;;;;;;344.80;165.38;;;7.50;99.90;;;;;;5083814;28;20036;-84
2022/02/06 16:07:32;;;;;;;401.48;170.10;;;7.50;99.90;;;;;;5084659;28;20029;-86
2022/02/06 16:09:58;;;;;;;382.42;166.40;;;7.50;99.90;;;;;;5076571;28;20419;-85
2022/02/06 16:12:24;;;;;;;378.83;169.45;;;7.50;99.90;;;;;;5085448;28;20071;-86
2022/02/06 16:14:50;;;;;;;325.88;152.30;;;7.60;99.90;;;;;;5080936;28;20158;-86
2022/02/06 16:17:15;;;;;;;339.60;155.93;;;7.60;99.90;;;;;;5074475;28;20123;-85
2022/02/06 16:19:41;;;;;;;357.85;158.60;;;7.60;99.90;;;;;;5087737;28;20044;-84
2022/02/06 16:22:11;;;;;;;347.58;157.43;;;7.60;99.90;;;;;;5089196;28;20058;-85
2022/02/06 16:24:41;;;;;;;366.33;164.60;;;7.50;99.90;;;;;;5087471;28;20099;-86
2022/02/06 16:27:08;;;;;;;368.25;170.55;;;7.50;99.90;;;;;;5068455;28;20407;-83
2022/02/06 16:29:42;;;;;;;361.42;156.45;;;7.50;99.90;;;;;;5072587;28;20035;-83
2022/02/06 16:32:13;;;;;;;357.35;159.63;;;7.50;99.90;;;;;;5073238;28;20028;-85
2022/02/06 16:34:43;;;;;;;358.67;159.18;;;7.50;99.90;;;;;;5077371;28;20153;-87
2022/02/06 16:37:11;;;;;;;349.95;156.90;;;7.50;99.90;;;;;;5077729;28;20375;-82
2022/02/06 16:39:40;;;;;;;365.60;159.13;;;7.50;99.90;;;;;;5090448;28;20036;-83
2022/02/06 16:42:12;;;;;;;352.80;161.20;;;7.50;99.90;;;;;;5084141;28;20050;-83
2022/02/06 16:44:38;;;;;;;373.42;163.23;;;7.50;99.90;;;;;;5071158;28;20024;-81
2022/02/06 16:47:06;;;;;;;357.27;152.60;;;7.50;99.90;;;;;;5062044;28;20024;-80
2022/02/06 16:49:37;;;;;;;358.33;157.98;;;7.50;99.90;;;;;;5076212;28;20070;-82
2022/02/06 16:52:04;;;;;;;338.08;150.93;;;7.50;99.90;;;;;;5083458;28;20074;-82
2022/02/06 16:54:29;;;;;;;354.83;152.57;;;7.40;99.90;;;;;;5081322;28;20052;-82
2022/02/06 16:56:55;;;;;;;337.98;148.73;;;7.50;99.90;;;;;;5077289;28;20068;-83
2022/02/06 16:59:21;;;;;;;303.77;143.15;;;7.50;99.90;;;;;;5088102;28;20506;-82
2022/02/06 17:01:48;;;;;;;287.92;135.65;;;7.60;99.90;;;;;;5082517;28;20499;-82
2022/02/06 17:04:17;;;;;;;276.05;132.35;;;7.70;99.90;;;;;;5076891;28;20020;-83
2022/02/06 17:06:43;;;;;;;252.25;128.95;;;7.80;99.90;;;;;;5059703;28;20115;-85
2022/02/06 17:09:12;;;;;;;267.17;136.95;;;7.80;99.90;;;;;;5089355;28;20100;-84
2022/02/06 17:11:39;;;;;;;260.83;131.98;;;7.90;99.90;;;;;;5060521;28;20375;-84
2022/02/06 17:14:06;;;;;;;244.95;123.07;;;8.00;99.90;;;;;;5088358;28;20020;-82
2022/02/06 17:16:32;;;;;;;261.65;136.43;;;8.00;99.90;;;;;;5082622;28;20502;-82
2022/02/06 17:18:58;;;;;;;228.65;122.22;;;8.00;99.90;;;;;;5078165;28;20028;-84
2022/02/06 17:21:24;;;;;;;233.13;130.10;;;8.00;99.90;;;;;;5084083;28;20385;-82
2022/02/06 17:23:50;;;;;;;233.02;125.65;;;8.00;99.90;;;;;;5076424;28;20106;-82
2022/02/06 17:26:16;;;;;;;233.35;121.32;;;8.00;99.90;;;;;;5084138;28;20094;-82
2022/02/06 17:28:44;;;;;;;208.85;118.90;;;8.00;99.90;;;;;;5070631;28;20036;-82
2022/02/06 17:31:10;;;;;;;232.80;123.50;;;8.00;99.90;;;;;;5082367;28;20024;-82
2022/02/06 17:33:36;;;;;;;236.50;125.05;;;8.00;99.90;;;;;;5057450;28;20052;-82
2022/02/06 17:36:07;;;;;;;233.20;124.75;;;8.00;99.90;;;;;;5066626;28;20031;-82
2022/02/06 17:38:33;;;;;;;226.70;126.07;;;8.00;99.90;;;;;;5077122;28;20082;-81
2022/02/06 17:40:59;;;;;;;229.40;124.50;;;8.00;99.90;;;;;;5079097;28;20036;-81
2022/02/06 17:43:26;;;;;;;235.10;123.43;;;8.00;99.90;;;;;;5076508;28;20025;-82
2022/02/06 17:45:52;;;;;;;228.13;122.45;;;8.00;99.90;;;;;;5081758;28;20021;-82
2022/02/06 17:48:19;;;;;;;233.20;127.40;;;8.10;99.90;;;;;;5076955;28;20020;-82
2022/02/06 17:50:47;;;;;;;235.20;126.43;;;8.00;99.90;;;;;;5083657;28;20013;-82
2022/02/06 17:53:14;;;;;;;254.68;132.07;;;8.10;99.90;;;;;;5090250;28;20383;-83
2022/02/06 17:55:40;;;;;;;239.85;128.32;;;8.10;99.90;;;;;;5080998;28;20417;-82
2022/02/06 17:58:09;;;;;;;245.45;130.60;;;8.10;99.90;;;;;;5089250;28;20048;-82
2022/02/06 18:00:35;;;;;;;252.23;128.07;;;8.10;99.90;;;;;;5083587;28;20482;-82
2022/02/06 18:03:01;;;;;;;254.50;133.60;;;8.10;99.90;;;;;;5061599;28;20490;-82
2022/02/06 18:05:26;;;;;;;264.10;138.45;;;8.10;99.90;;;;;;5081820;28;20036;-82
2022/02/06 18:07:52;;;;;;;257.33;134.13;;;8.00;99.90;;;;;;5058403;28;20059;-82
2022/02/06 18:10:19;;;;;;;258.00;132.38;;;8.10;99.90;;;;;;5074689;28;20031;-84
2022/02/06 18:12:46;;;;;;;248.63;129.00;;;8.10;99.90;;;;;;5087667;28;20050;-84
2022/02/06 18:15:12;;;;;;;230.48;125.72;;;8.10;99.90;;;;;;5084702;28;20486;-84
2022/02/06 18:17:40;;;;;;;238.45;127.50;;;8.10;99.90;;;;;;5078378;28;20040;-84
2022/02/06 18:20:07;;;;;;;245.13;125.35;;;8.10;99.90;;;;;;5058847;28;20044;-83
2022/02/06 18:22:34;;;;;;;253.25;127.55;;;8.20;99.90;;;;;;5070430;28;20036;-83
2022/02/06 18:25:00;;;;;;;240.35;129.77;;;8.20;99.90;;;;;;5060862;28;20085;-82
2022/02/06 18:27:28;;;;;;;244.98;127.30;;;8.20;99.90;;;;;;5081765;28;20056;-82
2022/02/06 18:29:54;;;;;;;239.15;125.45;;;8.20;99.90;;;;;;5078392;28;20028;-84
2022/02/06 18:32:20;;;;;;;237.98;130.20;;;8.10;99.90;;;;;;5069968;28;20023;-83
2022/02/06 18:34:46;;;;;;;252.70;128.35;;;8.10;99.90;;;;;;5077872;28;20440;-83
2022/02/06 18:37:12;;;;;;;243.10;126.72;;;8.10;99.90;;;;;;5079690;28;20040;-85
2022/02/06 18:39:41;;;;;;;238.73;128.10;;;8.10;99.90;;;;;;5078530;28;20059;-84
2022/02/06 18:42:08;;;;;;;247.88;130.93;;;8.20;99.90;;;;;;5081107;28;20475;-83
2022/02/06 18:44:35;;;;;;;263.80;131.15;;;8.10;99.90;;;;;;5059956;28;20032;-84
2022/02/06 18:47:07;;;;;;;266.95;134.63;;;8.10;99.90;;;;;;5063742;28;20024;-83
2022/02/06 18:49:33;;;;;;;269.80;137.57;;;8.10;99.90;;;;;;5078432;28;20030;-83
2022/02/06 18:52:05;;;;;;;281.27;140.40;;;8.00;99.90;;;;;;5075253;28;20062;-83
2022/02/06 18:54:31;;;;;;;278.55;141.80;;;8.00;99.90;;;;;;5076837;28;20016;-85
2022/02/06 18:57:03;;;;;;;275.50;133.93;;;8.00;99.90;;;;;;5081696;28;20047;-84
2022/02/06 18:59:32;;;;;;;260.83;129.77;;;8.00;99.90;;;;;;5079471;28;20394;-83
2022/02/06 19:02:09;;;;;;;276.35;135.20;;;8.00;99.90;;;;;;5061087;28;20111;-84
2022/02/06 19:04:36;;;;;;;276.55;136.82;;;8.00;99.90;;;;;;5082567;28;20133;-83
2022/02/06 19:07:02;;;;;;;254.38;133.70;;;8.10;99.90;;;;;;5079574;28;20023;-83
2022/02/06 19:09:36;;;;;;;254.88;131.05;;;8.10;99.90;;;;;;5077873;28;20047;-84
2022/02/06 19:12:07;;;;;;;256.38;125.85;;;8.10;99.90;;;;;;5080186;28;20053;-84
2022/02/06 19:14:36;;;;;;;240.23;122.90;;;8.10;99.90;;;;;;5075339;28;20028;-84
2022/02/06 19:17:03;;;;;;;268.45;135.88;;;8.10;99.90;;;;;;5063888;28;20029;-84
2022/02/06 19:19:28;;;;;;;276.02;131.50;;;8.00;99.90;;;;;;5075663;28;20036;-85